New Liulinhai — H8MH — position and weather

sailwx.info

Track history (hours):
 
Tides and Currents Weather Stations Pressure Air Temp Water Temp Dewpoint Dewpoint Depression Visibility Wind Speed Wind Dir Waves Ship Positions

New Liulinhai

Last reported at 2018-Apr-05 11:49 UTC. Time now 2018-Apr-25 12:45 UTC.
Position N 23°03' E 117°32'.
Warning: this ship's position is 20 days out of date.

Length 190 m; draft 12.5 m.

Type: Cargo ship. MMSI: 351700000.

Date/timePositionNaut miles runAvg speedWind from/ knotsBaromVisibWave heightAir tempDewpointWater temp
2018-Apr-05 11:49N 23°03' E 117°32'413.3
2018-Apr-05 11:30N 23°05' E 117°36'713.3
2018-Apr-05 11:00N 23°09' E 117°41'713.5
2018-Apr-05 10:30N 23°14' E 117°47'913.6
2018-Apr-05 09:50N 23°19' E 117°54'513.5
2018-Apr-05 09:30N 23°22' E 117°58'713.3
2018-Apr-05 09:00N 23°27' E 118°04'713.2
2018-Apr-05 08:30N 23°31' E 118°09'613.0
2018-Apr-05 08:00N 23°35' E 118°14'612.9
2018-Apr-05 07:30N 23°40' E 118°19'612.9
2018-Apr-05 07:00N 23°44' E 118°25'712.7
2018-Apr-05 06:29N 23°48' E 118°30'612.5
2018-Apr-05 06:00N 23°52' E 118°35'13711.7
2018-Apr-04 18:13N 25°23' E 120°29'312.4
2018-Apr-04 18:00N 25°25' E 120°31'  
2018-Mar-27 10:46N 31°10' E 122°33'411.9
2018-Mar-27 10:28N 31°07' E 122°33'7 7.0
2018-Mar-27 09:32N 31°06' E 122°25'0 9.2
2018-Mar-27 09:30N 31°06' E 122°25'510.7
2018-Mar-27 09:00N 31°06' E 122°19'713.6
2018-Mar-27 08:30N 31°10' E 122°12'714.5
2018-Mar-27 08:00N 31°14' E 122°05'814.8
2018-Mar-27 07:28N 31°15' E 121°56'815.0
2018-Mar-27 06:56N 31°18' E 121°47'1212.4
2018-Mar-27 06:00N 31°23' E 121°35'710.2
2018-Mar-27 05:21N 31°27' E 121°29'411.4
2018-Mar-27 05:00N 31°30' E 121°25'612.1
2018-Mar-27 04:29N 31°33' E 121°19'613.3
2018-Mar-27 04:00N 31°38' E 121°15'612.6
2018-Mar-27 03:30N 31°42' E 121°09'  
Track history (hours):
 
Tides and Currents Weather Stations Pressure Air Temp Water Temp Dewpoint Dewpoint Depression Visibility Wind Speed Wind Dir Waves Ship Positions

New Liulinhai

Last reported at 2018-Apr-05 11:49 UTC. Time now 2018-Apr-25 12:45 UTC.
Position N 23°03' E 117°32'.
Warning: this ship's position is 20 days out of date.

Length 190 m; draft 12.5 m.

Type: Cargo ship. MMSI: 351700000.

Date/timePositionNaut miles runAvg speedWind from/ knotsBaromVisibWave heightAir tempDewpointWater temp
2018-Apr-05 11:49N 23°03' E 117°32'413.3
2018-Apr-05 11:30N 23°05' E 117°36'713.3
2018-Apr-05 11:00N 23°09' E 117°41'713.5
2018-Apr-05 10:30N 23°14' E 117°47'913.6
2018-Apr-05 09:50N 23°19' E 117°54'513.5
2018-Apr-05 09:30N 23°22' E 117°58'713.3
2018-Apr-05 09:00N 23°27' E 118°04'713.2
2018-Apr-05 08:30N 23°31' E 118°09'613.0
2018-Apr-05 08:00N 23°35' E 118°14'612.9
2018-Apr-05 07:30N 23°40' E 118°19'612.9
2018-Apr-05 07:00N 23°44' E 118°25'712.7
2018-Apr-05 06:29N 23°48' E 118°30'612.5
2018-Apr-05 06:00N 23°52' E 118°35'13711.7
2018-Apr-04 18:13N 25°23' E 120°29'312.4
2018-Apr-04 18:00N 25°25' E 120°31'  
2018-Mar-27 10:46N 31°10' E 122°33'411.9
2018-Mar-27 10:28N 31°07' E 122°33'7 7.0
2018-Mar-27 09:32N 31°06' E 122°25'0 9.2
2018-Mar-27 09:30N 31°06' E 122°25'510.7
2018-Mar-27 09:00N 31°06' E 122°19'713.6
2018-Mar-27 08:30N 31°10' E 122°12'714.5
2018-Mar-27 08:00N 31°14' E 122°05'814.8
2018-Mar-27 07:28N 31°15' E 121°56'815.0
2018-Mar-27 06:56N 31°18' E 121°47'1212.4
2018-Mar-27 06:00N 31°23' E 121°35'710.2
2018-Mar-27 05:21N 31°27' E 121°29'411.4
2018-Mar-27 05:00N 31°30' E 121°25'612.1
2018-Mar-27 04:29N 31°33' E 121°19'613.3
2018-Mar-27 04:00N 31°38' E 121°15'612.6
2018-Mar-27 03:30N 31°42' E 121°09'  

Dump ship's entire track history